Latest Weather Observations for Busselton Airport

IDW60801

Issued at 9:43 am WST Tuesday 22 September 2020 (issued every 10 minutes, with the page automatically refreshed every 10 minutes)

About weather observations | Map of weather stations | Latest weather observations for WA | Other Formats
Station Details ID: 009603 Name: BUSSELTON AERO Lat: -33.68 Lon: 115.40 Height: 16.3 m
Data from the previous 72 hours. | See also: Recent months at Busselton Airport
Date/Time
WST
Temp
°C
App
Temp
°C
Dew
Point
°C
Rel
Hum
%
Delta-T
°C
Wind Press
QNH
hPa
Press
MSL
hPa
Rain since
9am
mm
Dir  Spd
km/h
Gust
km/h
Spd
kts
Gust
kts
22/09:30am 15.5 14.1 10.9 74 2.4 S 9 15 5 8 1023.9 1023.9 0.0
22/09:00am 14.4 12.1 10.4 77 2.1 SSW 13 17 7 9 1023.8 1023.8 2.2
22/08:30am 14.0 13.0 11.0 82 1.6 S 7 11 4 6 1023.7 1023.7 2.2
22/08:00am 13.0 13.5 12.8 99 0.1 NW 2 7 1 4 1023.5 1023.5 2.2
22/07:30am 12.2 12.9 12.2 100 0.0 CALM 0 0 0 0 1023.0 1023.1 2.2
22/07:00am 11.9 12.5 11.9 100 0.0 CALM 0 0 0 0 1022.7 1022.7 2.2
22/06:30am 11.4 11.8 11.4 100 0.0 CALM 0 0 0 0 1022.3 1022.3 2.2
22/06:08am 11.2 11.6 11.2 100 0.0 CALM 0 0 0 0 1022.0 1022.0 2.2
22/06:00am 11.1 11.5 11.1 100 0.0 CALM 0 0 0 0 1021.9 1021.9 2.2
22/05:30am 11.0 11.3 11.0 100 0.0 CALM 0 0 0 0 1021.7 1021.7 2.2
22/05:00am 10.9 11.2 10.9 100 0.0 CALM 0 0 0 0 1021.4 1021.4 2.2
22/04:30am 10.6 10.1 10.6 100 0.0 ESE 4 9 2 5 1021.1 1021.1 2.2
22/04:00am 10.2 10.3 10.2 100 0.0 CALM 0 0 0 0 1020.8 1020.8 2.2
22/03:40am 11.3 10.6 11.3 100 0.0 E 6 7 3 4 1020.8 1020.8 2.2
22/03:30am 11.5 12.0 11.5 100 0.0 CALM 0 7 0 4 1020.8 1020.8 2.2
22/03:00am 11.6 12.1 11.6 100 0.0 CALM 0 0 0 0 1020.8 1020.8 2.0
22/02:30am 11.3 11.0 11.3 100 0.0 SSW 4 6 2 3 1020.8 1020.8 2.0
22/02:00am 11.3 10.6 11.3 100 0.0 W 6 7 3 4 1020.8 1020.8 2.0
22/01:30am 12.5 12.0 12.5 100 0.0 SW 7 9 4 5 1021.0 1021.0 2.0
22/01:11am 12.8 12.0 12.8 100 0.0 SSW 9 15 5 8 1020.9 1020.9 2.0
22/01:00am 12.7 12.8 12.7 100 0.0 W 4 9 2 5 1020.7 1020.7 2.0
22/12:47am 12.7 11.8 12.7 100 0.0 WNW 9 9 5 5 1021.0 1021.0 2.0
22/12:30am 12.9 12.5 12.9 100 0.0 WSW 7 11 4 6 1020.9 1020.9 2.0
22/12:00am 12.7 12.4 12.7 100 0.0 W 6 7 3 4 1020.9 1020.9 1.6
 
Date/Time
WST
Temp
°C
App
Temp
°C
Dew
Point
°C
Rel
Hum
%
Delta-T
°C
Wind Press
QNH
hPa
Press
MSL
hPa
Rain since
9am
mm
Dir  Spd
km/h
Gust
km/h
Spd
kts
Gust
kts
21/11:30pm 12.5 12.9 12.5 100 0.0 SSW 2 6 1 3 1021.0 1021.0 1.0
21/11:23pm 12.4 12.0 12.4 100 0.0 SSW 6 7 3 4 1021.0 1021.0 0.8
21/11:00pm 12.3 11.9 12.3 100 0.0 SSW 6 7 3 4 1020.9 1020.9 0.6
21/10:30pm 12.8 11.9 12.6 99 0.1 SW 9 13 5 7 1021.1 1021.1 0.6
21/10:24pm 12.9 11.7 12.7 99 0.1 SW 11 15 6 8 1021.2 1021.2 0.6
21/10:00pm 12.8 11.5 12.6 99 0.1 W 11 15 6 8 1021.4 1021.4 0.4
21/09:51pm 12.7 11.0 12.5 99 0.1 W 13 17 7 9 1021.4 1021.4 0.2
21/09:46pm 12.7 11.0 12.5 99 0.1 W 13 19 7 10 1021.4 1021.4 0.2
21/09:30pm 12.7 10.2 12.4 98 0.2 WSW 17 24 9 13 1021.5 1021.5 0.2
21/09:22pm 12.8 9.8 12.0 95 0.4 SW 19 26 10 14 1021.6 1021.6 0.0
21/09:00pm 13.6 10.1 12.2 91 0.8 WSW 22 30 12 16 1021.6 1021.6 0.0
21/08:30pm 12.8 11.3 10.5 86 1.2 W 9 13 5 7 1021.2 1021.2 0.0
21/08:00pm 13.8 12.6 11.5 86 1.2 W 9 11 5 6 1021.2 1021.2 0.0
21/07:30pm 13.6 12.4 11.7 88 1.0 W 9 11 5 6 1021.1 1021.1 0.0
21/07:00pm 13.7 11.9 10.9 83 1.5 WNW 11 13 6 7 1020.9 1020.9 0.0
21/06:30pm 14.4 12.2 10.8 79 1.9 W 13 20 7 11 1021.0 1021.0 0.0
21/06:00pm 14.6 12.7 10.6 77 2.1 W 11 19 6 10 1020.9 1020.9 0.0
21/05:30pm 14.9 12.6 10.5 75 2.3 W 13 19 7 10 1020.9 1020.9 0.0
21/05:00pm 14.8 12.2 10.6 76 2.2 W 15 24 8 13 1021.0 1021.0 0.0
21/04:30pm 13.6 12.9 11.5 87 1.1 W 6 7 3 4 1020.9 1020.9 0.0
21/04:26pm 13.7 13.2 11.9 89 1.0 W 6 7 3 4 1020.9 1020.9 0.0
21/04:04pm 13.9 10.3 10.5 80 1.8 WSW 20 28 11 15 1021.0 1021.0 0.0
21/04:00pm 14.3 11.1 10.1 76 2.2 W 17 28 9 15 1021.0 1021.0 0.0
21/03:30pm 14.8 10.6 9.6 71 2.7 W 22 30 12 16 1020.8 1020.8 0.0
21/03:00pm 16.0 12.1 9.4 65 3.4 W 20 30 11 16 1020.6 1020.6 0.0
21/02:30pm 15.3 11.8 8.8 65 3.3 WSW 17 24 9 13 1020.7 1020.7 0.0
21/02:00pm 15.0 10.8 8.3 64 3.4 WSW 20 28 11 15 1020.9 1020.9 0.0
21/01:30pm 15.3 11.7 8.5 64 3.4 WSW 17 24 9 13 1021.0 1021.0 0.0
21/01:00pm 15.1 12.4 8.8 66 3.2 W 13 20 7 11 1021.1 1021.1 0.0
21/12:30pm 15.2 11.5 8.0 62 3.6 W 17 22 9 12 1020.9 1020.9 0.0
21/12:00pm 15.0 11.6 7.5 61 3.7 W 15 20 8 11 1021.1 1021.1 0.0
21/11:30am 15.3 10.9 7.3 59 4.0 WSW 20 26 11 14 1021.2 1021.2 0.0
21/11:00am 15.6 11.2 6.6 55 4.4 SW 19 26 10 14 1021.5 1021.5 0.0
21/10:30am 15.0 11.0 6.8 58 4.0 SW 17 24 9 13 1021.6 1021.6 0.0
21/10:00am 15.3 10.9 6.6 56 4.2 SW 19 24 10 13 1021.7 1021.7 0.0
21/09:30am 13.8 10.5 6.2 60 3.6 WSW 13 20 7 11 1021.7 1021.7 0.0
21/09:00am 13.1 10.2 6.5 64 3.1 SW 11 15 6 8 1021.8 1021.8 0.4
21/08:30am 12.8 10.8 6.2 64 3.1 WSW 6 11 3 6 1021.6 1021.6 0.4
21/08:00am 11.8 9.7 5.9 67 2.7 SSE 6 7 3 4 1021.5 1021.5 0.4
21/07:30am 11.5 9.3 6.2 70 2.5 S 7 9 4 5 1021.2 1021.2 0.4
21/07:00am 11.0 8.4 6.0 71 2.3 SSW 9 11 5 6 1021.0 1021.0 0.4
21/06:30am 10.8 7.7 5.6 70 2.4 SW 11 19 6 10 1020.9 1020.9 0.4
21/06:00am 9.6 8.7 7.7 88 0.9 WSW 2 7 1 4 1020.7 1020.7 0.4
21/05:30am 9.7 7.9 7.1 84 1.2 S 6 9 3 5 1020.5 1020.5 0.4
21/05:00am 10.3 8.4 6.8 79 1.6 WSW 6 7 3 4 1020.3 1020.3 0.4
21/04:30am 10.5 8.3 6.1 74 2.0 SW 7 9 4 5 1020.1 1020.1 0.4
21/04:00am 10.8 7.4 6.0 72 2.2 SW 13 17 7 9 1019.9 1019.9 0.4
21/03:30am 10.9 6.7 5.9 71 2.3 SW 17 24 9 13 1020.0 1020.0 0.4
21/03:00am 10.6 8.0 6.0 73 2.1 WSW 9 13 5 7 1019.9 1019.9 0.4
21/02:30am 10.6 8.0 6.2 74 2.0 SSW 9 13 5 7 1019.9 1019.9 0.4
21/02:00am 10.8 7.4 5.8 71 2.3 SW 13 17 7 9 1019.9 1019.9 0.4
21/01:30am 10.6 7.3 6.4 75 2.0 SSW 13 17 7 9 1020.0 1020.0 0.4
21/01:00am 10.8 7.5 6.6 75 2.0 SW 13 19 7 10 1020.2 1020.2 0.4
21/12:30am 11.0 6.5 6.2 72 2.2 WSW 19 30 10 16 1020.1 1020.1 0.4
21/12:00am 10.4 8.6 7.3 81 1.5 SW 6 6 3 3 1019.9 1019.9 0.4
 
Date/Time
WST
Temp
°C
App
Temp
°C
Dew
Point
°C
Rel
Hum
%
Delta-T
°C
Wind Press
QNH
hPa
Press
MSL
hPa
Rain since
9am
mm
Dir  Spd
km/h
Gust
km/h
Spd
kts
Gust
kts
20/11:30pm 10.3 8.6 7.5 83 1.3 SSW 6 7 3 4 1019.8 1019.8 0.4
20/11:00pm 10.1 8.4 7.7 85 1.1 S 6 7 3 4 1020.0 1020.0 0.4
20/10:30pm 10.7 7.9 7.0 78 1.8 SSW 11 17 6 9 1020.1 1020.1 0.4
20/10:00pm 10.8 8.1 7.3 79 1.7 SW 11 15 6 8 1019.9 1019.9 0.4
20/09:30pm 10.7 7.7 7.9 83 1.4 SW 13 19 7 10 1019.8 1019.8 0.4
20/09:00pm 10.5 7.3 8.3 86 1.1 SW 15 19 8 10 1019.7 1019.7 0.4
20/08:30pm 10.4 6.7 8.0 85 1.2 SW 17 24 9 13 1019.7 1019.7 0.4
20/08:00pm 10.4 5.8 8.2 86 1.1 WSW 22 33 12 18 1019.7 1019.7 0.4
20/07:30pm 10.5 6.4 7.7 83 1.3 WSW 19 26 10 14 1019.1 1019.1 0.4
20/07:00pm 11.4 6.9 6.9 74 2.1 WSW 20 28 11 15 1018.9 1018.9 0.4
20/06:30pm 11.4 5.7 6.7 73 2.2 SW 26 39 14 21 1018.4 1018.4 0.4
20/06:00pm 11.4 6.5 6.9 74 2.1 SW 22 32 12 17 1017.9 1017.9 0.4
20/05:30pm 11.7 7.2 7.0 73 2.2 SW 20 32 11 17 1017.6 1017.6 0.4
20/05:00pm 12.0 7.6 6.7 70 2.5 SW 19 24 10 13 1017.1 1017.1 0.4
20/04:40pm 12.5 6.1 5.4 62 3.3 SW 28 46 15 25 1017.3 1017.3 0.4
20/04:30pm 12.7 6.8 5.8 63 3.2 SW 26 37 14 20 1017.0 1017.0 0.4
20/04:00pm 12.1 6.4 6.6 69 2.6 WSW 26 39 14 21 1016.8 1016.8 0.4
20/03:30pm 12.0 5.5 6.5 69 2.6 SW 30 50 16 27 1016.8 1016.8 0.4
20/03:29pm 12.4 6.2 6.2 66 2.9 SW 28 50 15 27 1016.7 1016.7 0.4
20/03:00pm 12.3 6.2 6.8 69 2.6 SW 28 41 15 22 1016.3 1016.3 0.4
20/02:30pm 13.3 6.7 6.2 62 3.4 SW 30 41 16 22 1015.9 1015.9 0.4
20/02:01pm 13.3 7.3 6.9 65 3.1 SW 28 50 15 27 1015.8 1015.8 0.4
20/02:00pm 13.3 7.4 5.9 61 3.5 SW 26 50 14 27 1015.8 1015.8 0.4
20/01:41pm 12.3 5.6 7.2 71 2.5 SW 32 50 17 27 1015.6 1015.6 0.4
20/01:30pm 12.9 4.6 6.0 63 3.3 SW 39 54 21 29 1015.8 1015.8 0.4
20/01:03pm 13.9 5.2 6.0 59 3.8 SW 41 59 22 32 1015.3 1015.3 0.4
20/01:00pm 13.8 5.2 6.4 61 3.5 SW 41 56 22 30 1015.2 1015.2 0.4
20/12:30pm 12.5 5.5 8.6 77 1.9 SW 35 57 19 31 1015.3 1015.3 0.4
20/12:00pm 14.6 5.9 4.3 50 4.8 SW 39 61 21 33 1014.9 1014.9 0.2
20/11:31am 14.7 5.2 3.8 48 5.0 SW 43 63 23 34 1014.9 1014.9 0.2
20/11:30am 14.6 5.1 3.7 48 5.0 SW 43 57 23 31 1014.8 1014.8 0.2
20/11:02am 14.1 5.5 4.9 54 4.3 WSW 39 57 21 31 1014.4 1014.4 0.2
20/11:00am 14.0 5.1 5.1 55 4.2 WSW 41 57 22 31 1014.4 1014.4 0.2
20/10:30am 12.5 4.6 4.5 58 3.6 SW 35 56 19 30 1014.5 1014.5 0.2
20/10:00am 12.7 3.9 3.6 54 4.1 SW 39 61 21 33 1014.3 1014.3 0.2
20/09:30am 13.0 4.6 3.9 54 4.1 SW 37 57 20 31 1013.9 1013.9 0.2
20/09:01am 12.9 5.3 3.8 54 4.1 SW 33 54 18 29 1013.6 1013.6 0.0
20/09:00am 12.8 5.3 4.3 56 3.9 SW 33 48 18 26 1013.6 1013.6 5.8
20/08:40am 12.2 4.3 4.2 58 3.6 SW 35 56 19 30 1013.3 1013.3 5.8
20/08:30am 11.9 5.7 6.2 68 2.7 SW 28 37 15 20 1013.2 1013.2 5.8
20/08:08am 11.2 4.9 5.5 68 2.6 WSW 28 56 15 30 1013.2 1013.2 5.8
20/08:00am 11.4 5.4 5.5 67 2.7 WSW 26 44 14 24 1012.7 1012.7 5.8
20/07:30am 9.8 4.2 5.4 74 2.0 WSW 24 32 13 17 1012.4 1012.4 5.8
20/07:00am 9.5 4.1 4.5 71 2.2 SW 22 30 12 16 1011.9 1011.9 5.8
20/06:30am 8.7 1.7 3.9 72 2.1 SW 30 56 16 30 1011.5 1011.5 5.8
20/06:23am 9.1 2.4 3.7 69 2.3 WSW 28 56 15 30 1011.6 1011.6 5.8
20/06:00am 9.1 3.3 4.5 73 2.0 SW 24 33 13 18 1011.3 1011.3 5.8
20/05:30am 8.9 4.1 4.5 74 1.9 WSW 19 30 10 16 1010.9 1010.9 5.8
20/05:05am 8.8 2.3 4.8 76 1.8 SW 28 46 15 25 1011.0 1011.0 5.8
20/05:00am 9.1 4.1 4.7 74 2.0 WSW 20 33 11 18 1011.1 1011.1 5.6
20/04:30am 8.7 3.6 4.3 74 1.9 SW 20 28 11 15 1010.8 1010.8 5.6
20/04:00am 8.9 3.0 3.9 71 2.2 SW 24 35 13 19 1010.4 1010.4 5.4
20/03:30am 8.7 2.9 4.5 75 1.9 WSW 24 37 13 20 1010.4 1010.4 5.4
20/03:00am 9.0 3.7 4.8 75 1.9 WSW 22 30 12 16 1010.2 1010.2 5.0
20/02:30am 9.0 4.1 5.0 76 1.8 WSW 20 30 11 16 1010.6 1010.6 5.0
20/02:19am 9.0 2.5 4.8 75 1.9 WSW 28 46 15 25 1010.4 1010.4 5.0
20/02:00am 8.8 3.1 5.0 77 1.7 WSW 24 35 13 19 1010.3 1010.3 5.0
20/01:30am 9.5 4.0 4.1 69 2.4 W 22 35 12 19 1010.4 1010.4 5.0
20/01:00am 8.1 4.0 4.1 76 1.7 WSW 15 20 8 11 1010.5 1010.5 5.0
20/12:30am 7.9 1.1 5.2 83 1.2 WSW 30 50 16 27 1010.8 1010.8 5.0
20/12:22am 8.3 3.0 5.1 80 1.4 SW 22 50 12 27 1011.5 1011.5 4.8
20/12:00am 7.2 4.1 3.4 77 1.6 S 9 13 5 7 1010.5 1010.5 4.4
 
Date/Time
WST
Temp
°C
App
Temp
°C
Dew
Point
°C
Rel
Hum
%
Delta-T
°C
Wind Press
QNH
hPa
Press
MSL
hPa
Rain since
9am
mm
Dir  Spd
km/h
Gust
km/h
Spd
kts
Gust
kts
19/11:30pm 8.2 4.3 3.3 71 2.1 WSW 13 19 7 10 1010.6 1010.6 4.4
19/11:00pm 9.0 3.8 3.8 70 2.3 WSW 20 33 11 18 1011.0 1011.0 4.4
19/10:30pm 7.9 3.8 4.3 78 1.6 W 15 20 8 11 1010.6 1010.6 4.4
19/10:00pm 8.7 2.1 4.1 73 2.0 W 28 41 15 22 1010.9 1010.9 4.4
19/09:50pm 9.1 2.5 4.1 71 2.2 W 28 46 15 25 1010.9 1010.9 4.4
19/09:30pm 8.6 3.7 4.2 74 1.9 W 19 26 10 14 1010.7 1010.7 4.4
19/09:00pm 8.5 3.6 3.9 73 2.0 W 19 28 10 15 1010.5 1010.5 4.4
19/08:30pm 8.2 3.3 4.2 76 1.7 WSW 19 24 10 13 1010.5 1010.5 4.2
19/08:00pm 7.6 1.5 4.6 81 1.3 WSW 26 44 14 24 1010.6 1010.6 4.2
19/07:30pm 8.6 3.9 3.4 70 2.2 W 17 24 9 13 1010.0 1010.0 3.4
19/07:00pm 9.1 4.1 4.5 73 2.0 WSW 20 43 11 23 1010.1 1010.1 3.4
19/06:30pm 8.4 3.6 4.6 77 1.7 WSW 19 26 10 14 1009.2 1009.2 3.4
19/06:04pm 8.8 2.5 5.7 81 1.4 SW 28 50 15 27 1010.0 1010.0 3.4
19/06:00pm 9.2 4.1 5.8 79 1.6 SW 22 30 12 16 1009.6 1009.6 3.0
19/05:38pm 9.1 3.7 6.4 83 1.2 WSW 24 30 13 16 1009.2 1009.2 3.0
19/05:30pm 9.0 4.0 6.6 85 1.1 W 22 35 12 19 1008.8 1008.8 3.0
19/05:19pm 9.1 4.9 5.8 80 1.5 W 17 32 9 17 1008.9 1008.9 2.8
19/05:00pm 9.7 5.1 5.5 75 1.9 WSW 19 26 10 14 1008.5 1008.5 1.4
19/04:30pm 10.6 3.8 6.7 77 1.8 SW 32 44 17 24 1008.7 1008.7 1.4
19/04:14pm 10.5 4.2 7.4 81 1.5 WSW 30 54 16 29 1008.5 1008.5 1.4
19/04:08pm 9.9 5.5 7.2 83 1.3 WSW 20 50 11 27 1008.3 1008.3 1.4
19/04:00pm 10.1 4.5 7.3 83 1.3 WSW 26 46 14 25 1007.9 1007.9 1.4
19/03:50pm 9.6 2.5 6.3 80 1.5 SW 33 59 18 32 1008.2 1008.2 1.4
19/03:30pm 11.3 4.4 6.6 73 2.2 WSW 32 50 17 27 1007.5 1007.5 1.0
19/03:24pm 10.9 4.0 6.6 75 2.0 WSW 32 50 17 27 1007.6 1007.6 1.0
19/03:00pm 12.8 7.0 7.9 72 2.4 WSW 28 37 15 20 1007.0 1007.0 0.8
19/02:30pm 10.4 2.9 6.4 76 1.9 WSW 35 59 19 32 1007.4 1007.4 0.8
19/02:24pm 12.4 6.3 6.5 67 2.8 W 28 46 15 25 1006.8 1006.8 0.4
19/02:00pm 12.1 6.9 7.4 73 2.3 W 24 33 13 18 1007.0 1007.0 0.4
19/01:43pm 11.8 4.3 6.5 70 2.5 WSW 35 54 19 29 1007.2 1007.2 0.4
19/01:30pm 12.8 5.2 5.7 62 3.3 W 35 48 19 26 1006.9 1006.9 0.2
19/01:00pm 13.6 7.3 7.2 65 3.1 W 30 44 16 24 1006.7 1006.7 0.2
19/12:38pm 15.0 6.7 6.3 56 4.2 WSW 39 61 21 33 1006.8 1006.8 0.2
19/12:30pm 15.6 7.5 6.9 56 4.3 W 39 54 21 29 1006.5 1006.5 0.2
19/12:09pm 15.1 7.3 4.8 50 4.8 WSW 35 54 19 29 1006.6 1006.6 0.2
19/12:00pm 16.2 9.3 6.3 52 4.8 WSW 32 46 17 25 1006.8 1006.8 0.2
19/11:31am 14.8 8.3 6.6 58 4.0 W 30 52 16 28 1006.7 1006.7 0.2
19/11:30am 15.3 9.4 7.3 59 4.0 W 28 44 15 24 1006.7 1006.7 0.2
19/11:01am 14.5 7.2 7.1 61 3.6 W 35 57 19 31 1007.0 1007.0 0.2
19/11:00am 15.0 7.8 7.8 62 3.6 WSW 35 46 19 25 1006.9 1006.9 0.2
19/10:30am 12.5 6.8 8.2 75 2.1 W 28 46 15 25 1007.2 1007.2 0.2
19/10:00am 14.0 9.9 8.8 71 2.6 W 20 30 11 16 1007.3 1007.3 0.2

Other formats

Comma delimited format used in spreadsheet applications
http://www.bom.gov.au/fwo/IDW60801/IDW60801.95611.axf

JavaScript Object Notation format (JSON) in row-major order
http://www.bom.gov.au/fwo/IDW60801/IDW60801.95611.json

Data quality

Most of these data are generated automatically and are frequently updated. Quality checks on data are not normally performed. It is possible for incorrect values to appear. Refer to information at About Latest Weather Observations and please check the disclaimer before using these data.